Terminal Aerodrome Forecast
Issued by NWS

Home | Current Version | Previous Version | Text Only | Print | Product List | Glossary On
Versions: 1 2 3 4 5 6 7 8 9 10 11 12 13 14 15 16
000
FTUS44 KTSA 221100
TAFRVS
TAF
KRVS 221120Z 2212/2312 16010KT 3SM -DZ BR OVC004
     FM221800 27010KT P6SM BKN015
     FM222100 29010G17KT P6SM SCT025 BKN040
     FM222300 27007KT P6SM SCT250=

USA.gov is the U.S. government's official web portal to all federal, state and local government web resources and services.